Time;durP1;ratioP1;P1;durP2;ratioP2;P2;SDS_P1;SDS_P2;PMS_P1;PMS_P2;Temp;Humidity;BMP_temperature;BMP_pressure;BME280_temperature;BME280_humidity;BME280_pressure;Samples;Min_cycle;Max_cycle;Signal;HPM_P1;HPM_P2
2023/03/13 00:00:51;;;;;;;1.70;1.60;;;;;;;6.77;53.41;98518.31;5055757;28;20178;-58
2023/03/13 00:03:17;;;;;;;2.08;1.88;;;;;;;5.85;52.79;98413.47;5055659;28;20201;-58
2023/03/13 00:05:42;;;;;;;6.38;2.10;;;;;;;6.19;53.69;98529.84;5055718;28;20178;-58
2023/03/13 00:08:10;;;;;;;1.85;1.75;;;;;;;6.24;53.67;98509.91;5055673;28;20174;-58
2023/03/13 00:10:37;;;;;;;2.55;2.20;;;;;;;6.12;54.34;98509.69;5055627;28;20182;-58
2023/03/13 00:13:02;;;;;;;2.03;1.92;;;;;;;5.98;54.02;98469.28;5055589;28;20687;-58
2023/03/13 00:15:28;;;;;;;1.90;1.80;;;;;;;5.85;53.21;98427.16;5055581;28;20208;-58
2023/03/13 00:17:53;;;;;;;1.80;1.70;;;;;;;6.32;53.53;98523.22;5055199;28;20169;-58
2023/03/13 00:20:18;;;;;;;1.98;1.77;;;;;;;5.86;54.53;98472.44;5055480;28;20262;-58
2023/03/13 00:22:44;;;;;;;2.30;2.10;;;;;;;5.86;53.83;98490.41;5055309;28;20177;-58
2023/03/13 00:25:09;;;;;;;2.25;1.70;;;;;;;5.60;54.64;98477.16;5055384;28;20177;-58
2023/03/13 00:27:35;;;;;;;2.15;2.00;;;;;;;5.69;55.27;98507.50;5055311;28;20575;-58
2023/03/13 00:30:00;;;;;;;1.85;1.75;;;;;;;5.58;55.19;98489.19;5055279;28;20188;-58
2023/03/13 00:32:26;;;;;;;4.03;2.00;;;;;;;5.38;56.41;98479.91;5054920;28;20169;-58
2023/03/13 00:34:51;;;;;;;3.28;1.70;;;;;;;5.40;56.74;98511.44;5055184;28;20185;-58
2023/03/13 00:37:16;;;;;;;1.90;1.80;;;;;;;5.64;56.22;98523.13;5055142;28;20181;-58
2023/03/13 00:39:42;;;;;;;2.08;1.95;;;;;;;5.04;55.89;98415.69;5055101;28;20598;-58
2023/03/13 00:42:07;;;;;;;4.05;2.08;;;;;;;5.56;56.32;98525.22;5054589;28;20213;-58
2023/03/13 00:44:32;;;;;;;2.33;2.22;;;;;;;5.33;56.35;98468.16;5072091;28;20251;-58
2023/03/13 00:46:58;;;;;;;2.10;1.90;;;;;;;5.61;56.21;98491.63;5072547;28;20181;-58
2023/03/13 00:49:23;;;;;;;1.73;1.63;;;;;;;6.10;54.01;98514.06;5072775;28;20192;-58
2023/03/13 00:51:49;;;;;;;1.70;1.60;;;;;;;5.88;52.70;98424.41;5072758;28;20306;-58
2023/03/13 00:54:14;;;;;;;2.95;1.77;;;;;;;6.37;53.56;98528.97;5072434;28;20196;-58
2023/03/13 00:56:39;;;;;;;1.88;1.77;;;;;;;5.98;53.82;98482.13;5072303;28;20196;-58
2023/03/13 00:59:05;;;;;;;1.90;1.80;;;;;;;5.69;53.95;98417.66;5072341;28;20268;-58
2023/03/13 01:01:33;;;;;;;2.28;1.75;;;;;;;5.79;53.73;98449.69;5072319;28;20188;-58
2023/03/13 01:04:04;;;;;;;2.00;1.90;;;;;;;6.44;52.45;98526.91;5072169;28;20299;-58
2023/03/13 01:06:31;;;;;;;1.85;1.70;;;;;;;5.97;53.17;98480.47;5071150;28;20670;-58
2023/03/13 01:08:58;;;;;;;3.05;1.73;;;;;;;6.04;52.43;98471.53;5072146;28;20185;-58
2023/03/13 01:11:26;;;;;;;2.22;2.03;;;;;;;5.33;53.62;98425.41;5072133;28;20295;-58
2023/03/13 01:13:56;;;;;;;1.63;1.52;;;;;;;5.17;54.78;98427.03;5072038;28;20264;-58
2023/03/13 01:16:22;;;;;;;1.90;1.80;;;;;;;5.56;54.55;98449.97;5056917;28;20271;-58
2023/03/13 01:18:51;;;;;;;3.03;1.70;;;;;;;5.62;53.86;98429.97;5054402;28;20247;-58
2023/03/13 01:21:19;;;;;;;3.60;1.85;;;;;;;6.26;53.31;98536.38;5054296;28;20177;-58
2023/03/13 01:23:45;;;;;;;1.67;1.58;;;;;;;6.08;53.96;98503.88;5054199;28;20198;-58
2023/03/13 01:26:11;;;;;;;1.70;1.70;;;;;;;6.15;53.94;98524.94;5054196;28;20227;-58
2023/03/13 01:28:37;;;;;;;1.85;1.73;;;;;;;5.39;55.03;98429.41;5054158;28;20182;-58
2023/03/13 01:31:14;;;;;;;1.70;1.60;;;;;;;5.41;55.99;98459.22;5054392;28;20257;-58
2023/03/13 01:33:40;;;;;;;1.80;1.70;;;;;;;5.23;55.85;98413.06;5054111;28;20186;-58
2023/03/13 01:36:06;;;;;;;1.80;1.70;;;;;;;5.80;55.92;98512.97;5054046;28;20170;-58
2023/03/13 01:38:31;;;;;;;3.03;1.70;;;;;;;5.15;56.64;98421.16;5054014;28;20640;-58
2023/03/13 01:40:57;;;;;;;1.60;1.50;;;;;;;5.79;56.23;98521.56;5053945;28;20178;-58
2023/03/13 01:43:25;;;;;;;1.63;1.52;;;;;;;5.85;55.31;98505.91;5053796;28;20316;-58
2023/03/13 01:45:59;;;;;;;1.70;1.45;;;;;;;5.90;55.86;98530.44;5053959;28;20558;-58
2023/03/13 01:48:25;;;;;;;1.90;1.80;;;;;;;6.07;55.56;98529.63;5053499;28;20560;-58
2023/03/13 01:50:53;;;;;;;1.73;1.63;;;;;;;6.07;55.63;98522.75;5053689;28;20182;-58
2023/03/13 01:53:18;;;;;;;1.80;1.60;;;;;;;5.80;55.86;98488.16;5053377;28;20540;-58
2023/03/13 01:55:44;;;;;;;1.30;1.30;;;;;;;5.39;56.08;98434.53;5053675;28;20251;-58
2023/03/13 01:58:09;;;;;;;2.20;1.65;;;;;;;5.74;54.99;98473.00;5053575;28;20182;-58
2023/03/13 02:00:36;;;;;;;2.28;1.70;;;;;;;5.93;54.65;98501.22;5053578;28;20239;-57
2023/03/13 02:03:07;;;;;;;1.45;1.42;;;;;;;5.29;55.77;98446.13;5053447;28;20237;-58
2023/03/13 02:05:34;;;;;;;1.80;1.70;;;;;;;5.48;55.68;98488.81;5053195;28;20203;-58
2023/03/13 02:08:07;;;;;;;1.83;1.73;;;;;;;4.95;56.46;98449.41;5053462;28;20185;-58
2023/03/13 02:10:40;;;;;;;1.50;1.50;;;;;;;5.08;57.44;98532.56;5053752;28;20188;-58
2023/03/13 02:13:05;;;;;;;1.80;1.70;;;;;;;4.69;58.85;98495.91;5053351;28;20627;-58
2023/03/13 02:15:32;;;;;;;2.60;1.52;;;;;;;4.81;59.54;98551.75;5053312;28;20260;-58
2023/03/13 02:18:00;;;;;;;1.80;1.70;;;;;;;4.44;60.54;98513.19;5053032;28;20590;-58
2023/03/13 02:20:25;;;;;;;1.52;1.50;;;;;;;4.67;60.60;98541.25;5053232;28;20180;-58
2023/03/13 02:23:02;;;;;;;2.00;1.90;;;;;;;4.29;60.90;98518.16;5053045;28;20178;-58
2023/03/13 02:25:37;;;;;;;1.77;1.67;;;;;;;4.55;61.34;98585.31;5053199;28;20170;-58
2023/03/13 02:28:08;;;;;;;2.17;2.00;;;;;;;4.46;61.87;98560.09;5053019;28;20181;-57
2023/03/13 02:30:33;;;;;;;1.73;1.67;;;;;;;4.03;61.70;98483.38;5053016;28;20185;-57
2023/03/13 02:33:01;;;;;;;1.95;1.85;;;;;;;4.58;62.00;98582.66;5052978;28;20205;-58
2023/03/13 02:35:28;;;;;;;1.65;1.55;;;;;;;4.69;61.81;98583.03;5053169;28;20173;-58
2023/03/13 02:37:58;;;;;;;1.73;1.63;;;;;;;4.64;61.34;98577.25;5052874;28;20205;-57
2023/03/13 02:40:29;;;;;;;1.60;1.50;;;;;;;4.55;62.34;98605.00;5052850;28;20166;-58
2023/03/13 02:42:59;;;;;;;1.80;1.70;;;;;;;4.21;62.43;98528.69;5030415;28;20217;-58
2023/03/13 02:45:24;;;;;;;2.30;1.85;;;;;;;4.39;62.46;98589.44;5030451;28;20194;-57
2023/03/13 02:47:49;;;;;;;1.77;1.67;;;;;;;4.30;62.87;98581.28;5030403;28;20190;-58
2023/03/13 02:50:16;;;;;;;1.75;1.65;;;;;;;3.93;62.77;98515.38;5030353;28;20189;-58
2023/03/13 02:52:51;;;;;;;1.77;1.70;;;;;;;4.17;62.47;98570.72;5030311;28;20670;-58
2023/03/13 02:55:23;;;;;;;2.13;1.90;;;;;;;4.29;63.48;98589.84;5030180;28;20713;-58
2023/03/13 02:57:49;;;;;;;1.83;1.73;;;;;;;3.87;63.94;98568.53;5030368;28;20192;-58
2023/03/13 03:00:16;;;;;;;1.92;1.83;;;;;;;4.26;63.65;98634.34;5030235;28;20213;-58
2023/03/13 03:02:42;;;;;;;1.67;1.58;;;;;;;4.25;63.11;98609.63;5030131;28;20187;-58
2023/03/13 03:05:09;;;;;;;2.15;1.90;;;;;;;4.08;63.65;98619.72;5030073;28;20707;-58
2023/03/13 03:07:35;;;;;;;2.22;2.05;;;;;;;3.81;64.32;98577.28;5030136;28;20198;-58
2023/03/13 03:10:00;;;;;;;1.73;1.63;;;;;;;3.88;64.90;98598.34;5030108;28;20186;-58
2023/03/13 03:12:26;;;;;;;2.72;2.05;;;;;;;3.64;65.27;98558.34;5030062;28;20324;-58
2023/03/13 03:14:51;;;;;;;1.98;1.75;;;;;;;4.03;65.44;98639.53;5030341;28;20206;-58
2023/03/13 03:17:17;;;;;;;2.08;1.98;;;;;;;3.90;65.44;98623.00;5030016;28;20693;-58
2023/03/13 03:19:42;;;;;;;1.90;1.80;;;;;;;3.52;65.62;98569.06;5035538;28;20193;-58
2023/03/13 03:22:07;;;;;;;1.70;1.60;;;;;;;3.37;66.02;98555.13;5052205;28;20211;-58
2023/03/13 03:24:33;;;;;;;4.32;1.88;;;;;;;3.79;65.62;98614.88;5051879;28;20202;-58
2023/03/13 03:26:58;;;;;;;2.25;1.60;;;;;;;3.64;65.13;98571.16;5052197;28;20215;-56
2023/03/13 03:29:24;;;;;;;1.88;1.77;;;;;;;3.64;65.05;98572.00;5051459;28;20177;-56
2023/03/13 03:31:49;;;;;;;1.60;1.50;;;;;;;3.72;64.46;98569.97;5052103;28;20649;-57
2023/03/13 03:34:14;;;;;;;1.73;1.65;;;;;;;4.02;64.79;98630.19;5052096;28;20260;-57
2023/03/13 03:36:40;;;;;;;1.55;1.50;;;;;;;4.47;64.35;98682.16;5052115;28;20255;-57
2023/03/13 03:39:05;;;;;;;2.28;2.15;;;;;;;4.54;63.20;98688.69;5051992;28;20181;-57
2023/03/13 03:41:31;;;;;;;2.15;2.05;;;;;;;3.87;63.17;98587.28;5052033;28;20251;-57
2023/03/13 03:43:56;;;;;;;2.13;1.92;;;;;;;4.59;62.23;98681.66;5051982;28;20198;-58
2023/03/13 03:46:22;;;;;;;2.00;1.90;;;;;;;4.35;63.51;98672.41;5051977;28;20636;-57
2023/03/13 03:48:47;;;;;;;1.83;1.73;;;;;;;4.18;63.74;98638.09;5051962;28;20181;-57
2023/03/13 03:51:13;;;;;;;1.77;1.73;;;;;;;4.15;64.29;98631.38;5052234;28;20174;-57
2023/03/13 03:53:38;;;;;;;1.70;1.70;;;;;;;3.76;64.66;98588.59;5051938;28;20264;-57
2023/03/13 03:56:04;;;;;;;1.85;1.80;;;;;;;3.80;65.28;98620.84;5051925;28;20193;-57
2023/03/13 03:58:29;;;;;;;2.13;1.90;;;;;;;3.80;65.74;98626.78;5051904;28;20200;-57
2023/03/13 04:00:57;;;;;;;1.92;1.83;;;;;;;3.91;65.44;98650.25;5051578;28;20172;-57
2023/03/13 04:03:23;;;;;;;1.52;1.52;;;;;;;4.19;65.51;98691.81;5051775;28;20197;-58
2023/03/13 04:05:49;;;;;;;1.90;1.80;;;;;;;3.69;66.09;98628.94;5051879;28;20170;-58
2023/03/13 04:08:15;;;;;;;2.17;2.08;;;;;;;3.70;65.94;98622.94;5051782;28;20269;-57
2023/03/13 04:10:40;;;;;;;2.17;1.90;;;;;;;3.81;66.43;98633.59;5051731;28;20271;-58
2023/03/13 04:13:05;;;;;;;4.13;1.92;;;;;;;3.96;66.69;98683.38;5051768;28;20564;-58
2023/03/13 04:15:31;;;;;;;2.30;2.20;;;;;;;3.40;68.40;98647.09;5051703;28;20174;-58
2023/03/13 04:17:56;;;;;;;2.03;1.92;;;;;;;3.15;68.90;98610.50;5051381;28;20677;-58
2023/03/13 04:20:22;;;;;;;3.15;2.40;;;;;;;3.48;69.70;98673.22;5051695;28;20243;-57
2023/03/13 04:22:47;;;;;;;1.98;1.88;;;;;;;3.01;69.57;98610.16;5051607;28;20177;-58
2023/03/13 04:25:12;;;;;;;2.55;2.35;;;;;;;3.39;70.58;98695.72;5051639;28;20182;-58
2023/03/13 04:27:38;;;;;;;2.03;1.92;;;;;;;2.93;70.66;98624.91;5051555;28;20181;-58
2023/03/13 04:30:04;;;;;;;2.10;2.00;;;;;;;3.29;70.62;98690.09;5051581;28;20361;-58
2023/03/13 04:32:29;;;;;;;1.80;1.80;;;;;;;3.22;70.33;98672.47;5051725;28;20189;-58
2023/03/13 04:34:55;;;;;;;2.00;1.90;;;;;;;3.41;69.22;98697.34;5051553;28;20235;-58
2023/03/13 04:37:20;;;;;;;1.90;1.80;;;;;;;3.40;68.80;98689.72;5051517;28;20182;-58
2023/03/13 04:39:46;;;;;;;1.85;1.75;;;;;;;3.43;68.20;98717.72;5052386;28;20180;-58
2023/03/13 04:42:12;;;;;;;2.28;2.10;;;;;;;3.68;68.07;98755.19;5055091;28;20180;-58
2023/03/13 04:44:37;;;;;;;1.98;1.83;;;;;;;3.47;68.74;98730.38;5054991;28;20196;-58
2023/03/13 04:47:03;;;;;;;2.10;2.00;;;;;;;3.04;68.64;98668.00;5054925;28;20656;-58
2023/03/13 04:49:29;;;;;;;3.08;2.40;;;;;;;3.74;68.49;98764.38;5054955;28;20176;-58
2023/03/13 04:51:55;;;;;;;1.90;1.80;;;;;;;3.67;68.95;98758.63;5054899;28;20655;-59
2023/03/13 04:54:21;;;;;;;2.53;2.05;;;;;;;3.66;68.78;98756.97;5054542;28;20182;-58
2023/03/13 04:56:46;;;;;;;2.03;1.92;;;;;;;3.58;68.24;98717.19;5054963;28;20217;-59
2023/03/13 04:59:13;;;;;;;2.90;2.70;;;;;;;3.52;68.81;98717.41;5054446;28;20316;-58
2023/03/13 05:01:40;;;;;;;1.83;1.73;;;;;;;3.33;68.73;98686.53;5054704;28;20244;-58
2023/03/13 05:04:05;;;;;;;2.03;1.92;;;;;;;3.54;68.61;98726.69;5052094;28;20618;-59
2023/03/13 05:06:31;;;;;;;2.30;2.10;;;;;;;3.54;68.70;98716.47;5052219;28;20189;-58
2023/03/13 05:08:56;;;;;;;1.95;1.85;;;;;;;3.79;69.35;98732.59;5052189;28;20264;-59
2023/03/13 05:11:22;;;;;;;3.53;2.65;;;;;;;3.49;68.59;98692.78;5052121;28;20174;-59
2023/03/13 05:13:47;;;;;;;5.05;3.03;;;;;;;3.54;68.70;98698.56;5031888;28;20778;-59
2023/03/13 05:16:12;;;;;;;4.15;2.58;;;;;;;3.64;68.46;98705.03;5032110;28;20194;-59
2023/03/13 05:18:38;;;;;;;3.17;2.85;;;;;;;3.65;68.44;98709.25;5031952;28;20183;-59
2023/03/13 05:21:04;;;;;;;2.90;2.60;;;;;;;3.92;68.73;98764.53;5031930;28;20187;-57
2023/03/13 05:23:32;;;;;;;2.20;2.10;;;;;;;3.81;68.65;98751.31;5032102;28;20682;-57
2023/03/13 05:25:58;;;;;;;2.67;2.20;;;;;;;3.64;68.92;98719.53;5031858;28;20269;-57
2023/03/13 05:28:25;;;;;;;2.28;2.10;;;;;;;4.11;69.19;98803.94;5031749;28;20324;-57
2023/03/13 05:30:51;;;;;;;3.33;2.60;;;;;;;4.18;69.12;98784.91;5031722;28;20195;-56
2023/03/13 05:33:18;;;;;;;4.10;2.30;;;;;;;4.06;68.73;98753.78;5031702;28;20264;-56
2023/03/13 05:35:44;;;;;;;2.42;2.20;;;;;;;4.11;68.70;98769.81;5047009;28;20193;-56
2023/03/13 05:38:10;;;;;;;2.30;2.20;;;;;;;4.27;69.01;98814.47;5051529;28;20180;-56
2023/03/13 05:40:35;;;;;;;2.67;1.98;;;;;;;3.80;69.54;98734.25;5051483;28;20186;-57
2023/03/13 05:43:01;;;;;;;2.38;2.25;;;;;;;4.33;69.03;98802.28;5051402;28;20181;-57
2023/03/13 05:45:26;;;;;;;2.47;2.28;;;;;;;4.28;68.87;98788.78;5053027;28;20244;-57
2023/03/13 05:47:51;;;;;;;2.85;2.65;;;;;;;4.48;68.62;98811.91;5053745;28;20209;-57
2023/03/13 05:50:17;;;;;;;3.00;2.70;;;;;;;4.07;68.36;98728.13;5053730;28;20181;-57
2023/03/13 05:52:42;;;;;;;2.83;2.53;;;;;;;4.65;67.88;98806.13;5053025;28;20228;-57
2023/03/13 05:55:08;;;;;;;1.90;1.80;;;;;;;4.66;67.36;98826.59;5053467;28;20236;-57
2023/03/13 05:57:33;;;;;;;2.10;2.00;;;;;;;4.70;67.88;98838.41;5053256;28;20629;-57
2023/03/13 05:59:59;;;;;;;2.72;2.30;;;;;;;4.92;67.90;98840.97;5053517;28;20173;-57
2023/03/13 06:02:24;;;;;;;2.35;2.25;;;;;;;4.98;67.09;98818.50;5053513;28;20476;-57
2023/03/13 06:04:50;;;;;;;2.70;2.50;;;;;;;4.67;65.77;98748.00;5053206;28;20276;-57
2023/03/13 06:07:16;;;;;;;2.45;2.25;;;;;;;5.08;64.59;98798.44;5053133;28;20198;-58
2023/03/13 06:09:44;;;;;;;2.53;2.33;;;;;;;4.90;64.52;98761.53;5053124;28;20192;-58
2023/03/13 06:12:10;;;;;;;3.60;3.20;;;;;;;5.36;64.01;98810.06;5053428;28;20186;-58
2023/03/13 06:14:36;;;;;;;3.45;2.90;;;;;;;5.57;62.40;98810.91;5053030;28;20182;-58
2023/03/13 06:17:03;;;;;;;4.00;3.60;;;;;;;5.40;60.14;98770.56;5053255;28;20170;-58
2023/03/13 06:19:28;;;;;;;7.40;3.70;;;;;;;6.05;58.71;98866.16;5052975;28;20210;-58
2023/03/13 06:21:54;;;;;;;4.05;3.45;;;;;;;6.16;58.74;98866.53;5053207;28;20205;-58
2023/03/13 06:24:19;;;;;;;4.85;3.80;;;;;;;6.05;58.63;98832.78;5053070;28;20198;-58
2023/03/13 06:26:47;;;;;;;4.07;3.67;;;;;;;5.83;58.12;98785.81;5053056;28;20177;-59
2023/03/13 06:29:13;;;;;;;7.55;4.13;;;;;;;6.40;57.79;98887.78;5053027;28;20186;-58
2023/03/13 06:31:38;;;;;;;4.35;2.92;;;;;;;6.00;57.36;98806.47;5053047;28;20170;-58
2023/03/13 06:34:03;;;;;;;4.00;2.50;;;;;;;6.51;57.74;98863.25;5053233;28;20189;-58
2023/03/13 06:36:29;;;;;;;3.83;2.50;;;;;;;6.38;56.34;98825.31;5052939;28;20201;-58
2023/03/13 06:38:54;;;;;;;5.55;3.17;;;;;;;6.35;56.69;98882.81;5052862;28;20205;-58
2023/03/13 06:41:20;;;;;;;2.85;2.65;;;;;;;6.23;56.77;98839.66;5052821;28;20180;-58
2023/03/13 06:43:45;;;;;;;2.65;1.88;;;;;;;6.40;57.39;98852.59;5052470;28;20688;-58
2023/03/13 06:46:16;;;;;;;2.50;2.30;;;;;;;6.37;57.51;98833.91;5052998;28;20166;-58
2023/03/13 06:48:43;;;;;;;4.80;2.63;;;;;;;6.16;57.45;98784.34;5052682;28;20583;-58
2023/03/13 06:51:15;;;;;;;2.10;1.90;;;;;;;6.50;57.26;98817.88;5052641;28;20178;-58
2023/03/13 06:53:41;;;;;;;1.95;1.83;;;;;;;6.88;56.54;98858.06;5052593;28;20189;-58
2023/03/13 06:56:07;;;;;;;2.40;2.20;;;;;;;6.58;56.87;98809.81;5052090;28;20229;-58
2023/03/13 06:58:33;;;;;;;2.65;2.53;;;;;;;6.44;57.02;98789.88;5052425;28;20196;-59
2023/03/13 07:01:05;;;;;;;2.05;1.95;;;;;;;6.55;56.40;98792.81;5052410;28;20644;-58
2023/03/13 07:03:31;;;;;;;2.10;2.00;;;;;;;6.94;55.42;98820.97;5051324;28;20193;-58
2023/03/13 07:05:57;;;;;;;2.70;2.50;;;;;;;6.72;55.00;98785.13;5052455;28;20182;-58
2023/03/13 07:08:24;;;;;;;2.30;2.20;;;;;;;6.97;54.56;98795.91;5052348;28;20178;-58
2023/03/13 07:10:51;;;;;;;2.08;1.92;;;;;;;7.07;54.19;98786.84;5051641;28;20565;-58
2023/03/13 07:13:18;;;;;;;2.22;2.13;;;;;;;7.40;53.11;98808.34;5052220;28;20165;-58
2023/03/13 07:15:44;;;;;;;2.75;1.77;;;;;;;7.86;51.96;98860.97;5051892;28;20185;-58
2023/03/13 07:18:09;;;;;;;1.80;1.70;;;;;;;7.46;51.67;98781.47;5051992;28;20173;-58
2023/03/13 07:20:35;;;;;;;1.80;1.70;;;;;;;8.03;51.65;98863.53;5052234;28;20174;-58
2023/03/13 07:23:03;;;;;;;3.97;2.45;;;;;;;8.09;51.71;98858.88;5051267;28;20174;-58
2023/03/13 07:25:28;;;;;;;6.10;2.60;;;;;;;7.99;51.62;98811.31;5050962;28;20178;-58
2023/03/13 07:27:55;;;;;;;8.45;3.95;;;;;;;8.46;51.34;98852.69;5049230;28;20184;-58
2023/03/13 07:30:21;;;;;;;8.25;4.10;;;;;;;8.74;51.02;98873.50;5051740;28;20204;-58
2023/03/13 07:32:46;;;;;;;8.45;3.97;;;;;;;8.49;50.50;98814.66;5052137;28;20204;-58
2023/03/13 07:35:11;;;;;;;6.78;4.03;;;;;;;8.48;50.30;98800.13;5052113;28;20692;-58
2023/03/13 07:37:37;;;;;;;7.63;4.28;;;;;;;8.57;50.23;98835.72;5052082;28;20181;-58
2023/03/13 07:40:03;;;;;;;6.35;4.50;;;;;;;8.84;50.54;98874.66;5052355;28;20224;-58
2023/03/13 07:42:29;;;;;;;6.85;4.22;;;;;;;8.21;50.83;98785.28;5052060;28;20184;-58
2023/03/13 07:44:54;;;;;;;5.70;3.70;;;;;;;8.44;50.93;98816.66;5051656;28;20197;-58
2023/03/13 07:47:20;;;;;;;6.93;4.55;;;;;;;8.68;51.10;98854.03;5051782;28;20260;-58
2023/03/13 07:49:45;;;;;;;9.10;4.45;;;;;;;8.92;50.49;98868.16;5051700;28;20173;-58
2023/03/13 07:52:11;;;;;;;10.63;4.18;;;;;;;8.81;49.78;98818.94;5050975;28;20177;-58
2023/03/13 07:54:37;;;;;;;4.53;4.13;;;;;;;9.20;49.76;98862.34;5050843;28;20253;-59
2023/03/13 07:57:03;;;;;;;6.03;4.25;;;;;;;9.35;49.79;98858.88;5051941;28;20589;-58
2023/03/13 07:59:28;;;;;;;12.38;4.93;;;;;;;9.30;49.32;98833.34;5051835;28;20594;-58
2023/03/13 08:01:53;;;;;;;5.10;4.60;;;;;;;9.72;49.03;98876.56;5051846;28;20174;-58
2023/03/13 08:04:19;;;;;;;6.72;4.07;;;;;;;9.44;48.44;98802.38;5051790;28;20285;-58
2023/03/13 08:06:44;;;;;;;8.90;4.78;;;;;;;9.86;47.79;98834.28;5051817;28;20211;-58
2023/03/13 08:09:10;;;;;;;7.10;4.93;;;;;;;9.76;47.61;98796.19;5051780;28;20641;-59
2023/03/13 08:11:39;;;;;;;10.32;4.10;;;;;;;10.02;47.85;98819.56;5051795;28;20177;-58
2023/03/13 08:14:04;;;;;;;6.30;4.75;;;;;;;10.13;47.05;98837.88;5051661;28;20663;-58
2023/03/13 08:16:33;;;;;;;7.13;4.78;;;;;;;10.14;47.00;98823.16;5055477;28;20184;-58
2023/03/13 08:18:59;;;;;;;9.70;4.60;;;;;;;10.37;46.98;98848.47;5055500;28;20186;-58
2023/03/13 08:21:29;;;;;;;4.40;3.97;;;;;;;10.70;45.98;98886.09;5055482;28;20227;-58
2023/03/13 08:23:57;;;;;;;5.32;4.00;;;;;;;10.81;45.54;98878.47;5055352;28;20252;-59
2023/03/13 08:26:27;;;;;;;4.22;3.80;;;;;;;10.48;45.69;98796.91;5055409;28;20170;-59
2023/03/13 08:28:59;;;;;;;5.18;4.20;;;;;;;10.57;45.29;98796.34;5055470;28;20421;-58
2023/03/13 08:31:30;;;;;;;5.95;4.40;;;;;;;10.53;45.19;98810.41;5055199;28;20176;-58
2023/03/13 08:33:56;;;;;;;4.43;3.80;;;;;;;10.72;45.10;98839.38;5055354;28;20196;-59
2023/03/13 08:36:24;;;;;;;8.20;5.38;;;;;;;10.90;45.08;98866.69;5055207;28;20233;-59
2023/03/13 08:38:51;;;;;;;3.97;3.45;;;;;;;10.88;43.45;98853.88;5055172;28;20189;-59
2023/03/13 08:41:18;;;;;;;5.93;3.25;;;;;;;10.64;43.13;98793.31;5055102;28;20182;-58
2023/03/13 08:43:45;;;;;;;4.25;3.40;;;;;;;11.29;42.30;98877.16;5054979;28;20201;-59
2023/03/13 08:46:11;;;;;;;7.00;4.63;;;;;;;10.97;42.11;98814.44;5054999;28;20177;-59
2023/03/13 08:48:36;;;;;;;5.97;4.45;;;;;;;11.06;42.27;98821.63;5054925;28;20193;-59
2023/03/13 08:51:10;;;;;;;31.15;16.30;;;;;;;11.29;43.01;98867.63;5054929;28;20174;-59
2023/03/13 08:53:37;;;;;;;14.20;9.52;;;;;;;10.96;43.17;98850.78;5054806;28;20174;-59
2023/03/13 08:56:03;;;;;;;14.30;11.90;;;;;;;10.68;42.13;98815.44;5054272;28;20185;-59
2023/03/13 08:58:29;;;;;;;12.98;10.75;;;;;;;10.84;42.58;98825.66;5054528;28;20659;-59
2023/03/13 09:01:10;;;;;;;6.57;5.05;;;;;;;10.99;42.02;98822.97;5054711;28;20269;-59
2023/03/13 09:03:37;;;;;;;3.75;3.53;;;;;;;11.42;41.95;98875.41;5054280;28;20243;-59
2023/03/13 09:06:03;;;;;;;7.88;5.75;;;;;;;11.07;41.29;98804.31;5053497;28;20212;-59
2023/03/13 09:08:29;;;;;;;7.57;6.28;;;;;;;11.39;41.99;98863.50;5053711;28;20178;-59
2023/03/13 09:11:06;;;;;;;9.13;7.15;;;;;;;11.06;41.45;98823.38;5054828;28;20166;-59
2023/03/13 09:13:35;;;;;;;7.97;6.30;;;;;;;10.73;41.93;98776.38;5054494;28;20275;-59
2023/03/13 09:16:09;;;;;;;5.55;4.57;;;;;;;11.27;41.83;98843.56;5071902;28;20609;-61
2023/03/13 09:18:35;;;;;;;4.32;3.92;;;;;;;11.37;41.54;98820.50;5072015;28;20208;-60
2023/03/13 09:21:01;;;;;;;4.30;3.30;;;;;;;11.68;41.08;98846.09;5071976;28;20254;-60
2023/03/13 09:23:26;;;;;;;6.25;4.95;;;;;;;11.33;40.23;98777.59;5071883;28;20212;-60
2023/03/13 09:25:56;;;;;;;8.32;4.47;;;;;;;11.53;39.61;98823.72;5071126;28;20185;-60
2023/03/13 09:28:23;;;;;;;5.75;5.15;;;;;;;11.48;40.17;98818.00;5071579;28;20185;-60
2023/03/13 09:30:48;;;;;;;5.93;5.40;;;;;;;11.70;40.53;98864.97;5071814;28;20186;-60
2023/03/13 09:33:17;;;;;;;4.25;3.85;;;;;;;11.15;39.91;98784.78;5071788;28;20192;-60
2023/03/13 09:35:49;;;;;;;4.13;3.80;;;;;;;11.55;39.26;98846.03;5071739;28;20217;-60
2023/03/13 09:38:15;;;;;;;4.72;3.95;;;;;;;11.81;39.22;98852.13;5071752;28;20173;-60
2023/03/13 09:40:45;;;;;;;6.63;5.32;;;;;;;12.01;39.47;98859.41;5071583;28;20184;-60
2023/03/13 09:43:26;;;;;;;8.90;8.15;;;;;;;11.87;39.00;98857.75;5071822;28;20199;-60
2023/03/13 09:45:57;;;;;;;8.50;7.65;;;;;;;11.48;39.50;98810.25;5070812;28;20831;-60
2023/03/13 09:48:32;;;;;;;5.07;4.07;;;;;;;11.52;38.85;98802.19;5053638;28;20166;-60
2023/03/13 09:51:27;;;;;;;3.90;3.08;;;;;;;12.02;38.70;98858.47;5053497;28;20169;-60
2023/03/13 09:54:05;;;;;;;3.22;2.85;;;;;;;11.72;38.42;98775.78;5032750;28;20202;-60
2023/03/13 09:56:40;;;;;;;5.57;5.07;;;;;;;11.93;35.94;98817.59;5031206;28;20206;-60
2023/03/13 09:59:25;;;;;;;3.53;3.22;;;;;;;11.98;35.27;98803.41;5031211;28;20186;-60
2023/03/13 10:01:54;;;;;;;4.70;4.30;;;;;;;12.08;35.30;98816.56;5031373;28;20194;-60
2023/03/13 10:04:27;;;;;;;3.72;3.28;;;;;;;12.16;35.23;98841.06;5031185;28;20211;-61
2023/03/13 10:06:55;;;;;;;3.45;3.15;;;;;;;12.23;35.19;98841.44;5031036;28;20198;-60
2023/03/13 10:09:32;;;;;;;5.65;4.97;;;;;;;11.73;35.33;98755.91;5031071;28;20205;-60
2023/03/13 10:12:12;;;;;;;9.18;5.80;;;;;;;11.65;35.87;98807.41;5030928;28;20781;-60
2023/03/13 10:15:03;;;;;;;9.73;6.68;;;;;;;11.97;36.02;98822.47;5030735;28;20194;-60
2023/03/13 10:17:34;;;;;;;4.10;3.10;;;;;;;11.72;35.24;98734.31;5011050;28;20187;-60
2023/03/13 10:20:27;;;;;;;3.92;3.47;;;;;;;12.41;33.65;98827.19;5011246;28;20195;-60
2023/03/13 10:23:07;;;;;;;4.88;4.35;;;;;;;12.50;33.71;98798.03;4933120;29;20232;-60
2023/03/13 10:25:35;;;;;;;3.33;3.03;;;;;;;12.39;32.94;98757.25;4960035;28;20204;-58
2023/03/13 10:28:01;;;;;;;2.95;2.75;;;;;;;12.40;33.32;98738.16;4971739;28;20579;-59
2023/03/13 10:30:26;;;;;;;10.30;7.68;;;;;;;12.91;33.01;98812.34;4971855;28;20196;-59
2023/03/13 10:33:07;;;;;;;9.63;6.70;;;;;;;13.12;31.81;98816.00;4971577;28;20794;-59
2023/03/13 10:35:35;;;;;;;4.57;4.03;;;;;;;12.83;31.55;98733.31;4971867;28;20255;-59
2023/03/13 10:38:20;;;;;;;3.65;2.38;;;;;;;12.93;29.67;98817.41;4971567;28;20645;-59
2023/03/13 10:41:00;;;;;;;2.10;2.00;;;;;;;12.56;28.96;98758.66;4972093;28;20652;-59
2023/03/13 10:43:27;;;;;;;2.72;2.10;;;;;;;12.49;30.60;98741.88;4969761;28;20262;-60
2023/03/13 10:45:53;;;;;;;2.08;1.98;;;;;;;12.96;30.31;98809.44;4971317;28;20275;-59
2023/03/13 10:48:29;;;;;;;2.70;2.40;;;;;;;12.28;30.39;98713.06;4971652;28;20271;-59
2023/03/13 10:50:58;;;;;;;3.47;3.17;;;;;;;12.83;30.78;98761.91;4971308;28;20172;-59
2023/03/13 10:53:33;;;;;;;2.38;2.17;;;;;;;13.01;30.58;98763.19;4974359;28;20702;-60
2023/03/13 10:56:10;;;;;;;2.10;2.00;;;;;;;13.20;30.73;98795.53;4990880;28;20202;-60
2023/03/13 10:58:42;;;;;;;2.17;2.03;;;;;;;12.72;30.29;98782.59;4990602;28;20186;-60
2023/03/13 11:01:24;;;;;;;2.20;2.10;;;;;;;12.84;30.38;98753.16;5051428;28;20174;-60
2023/03/13 11:03:52;;;;;;;2.67;2.47;;;;;;;13.32;31.15;98778.19;5052276;28;20192;-60
2023/03/13 11:06:30;;;;;;;2.53;2.33;;;;;;;13.44;30.20;98785.06;5051879;28;20591;-60
2023/03/13 11:09:13;;;;;;;2.53;2.30;;;;;;;13.66;30.50;98782.53;5052453;28;20161;-60
2023/03/13 11:11:46;;;;;;;3.83;3.35;;;;;;;13.69;30.56;98764.09;5052405;28;20173;-60
2023/03/13 11:14:17;;;;;;;8.05;6.20;;;;;;;13.72;31.22;98717.06;5049449;28;20189;-59
2023/03/13 11:16:54;;;;;;;4.22;3.83;;;;;;;13.88;30.72;98709.75;5049918;28;20597;-59
2023/03/13 11:19:33;;;;;;;4.80;3.88;;;;;;;14.05;30.05;98767.34;5049873;28;20177;-60
2023/03/13 11:22:04;;;;;;;4.72;3.58;;;;;;;14.03;29.74;98761.44;5049979;28;20276;-59
2023/03/13 11:24:53;;;;;;;3.28;2.97;;;;;;;14.16;29.42;98763.91;5049810;28;20201;-59
2023/03/13 11:27:47;;;;;;;2.88;2.67;;;;;;;14.51;29.24;98746.38;5049861;28;20240;-60
2023/03/13 11:30:21;;;;;;;3.33;2.20;;;;;;;13.90;29.08;98685.28;5049714;28;20231;-60
2023/03/13 11:32:53;;;;;;;2.92;2.72;;;;;;;14.50;28.94;98742.13;5049720;28;20204;-60
2023/03/13 11:35:32;;;;;;;2.90;2.70;;;;;;;14.45;29.08;98739.06;5049949;28;20190;-60
2023/03/13 11:38:00;;;;;;;2.90;2.70;;;;;;;13.83;29.59;98724.88;5049803;28;20173;-60
2023/03/13 11:40:34;;;;;;;3.10;2.90;;;;;;;13.16;30.03;98656.38;5049671;28;20196;-60
2023/03/13 11:43:15;;;;;;;3.45;2.60;;;;;;;13.94;28.70;98737.91;5049088;28;20170;-60